Time;durP1;ratioP1;P1;durP2;ratioP2;P2;SDS_P1;SDS_P2;PMS_P1;PMS_P2;Temp;Humidity;BMP_temperature;BMP_pressure;BME280_temperature;BME280_humidity;BME280_pressure;Samples;Min_cycle;Max_cycle;Signal;HPM_P1;HPM_P2
2022/09/10 00:01:59;;;;;;;1.75;0.90;;;22.20;69.90;;;;;;5092741;28;20051;-67
2022/09/10 00:04:25;;;;;;;4.18;0.90;;;22.20;69.80;;;;;;5092323;28;20127;-67
2022/09/10 00:06:51;;;;;;;3.03;1.25;;;22.20;69.90;;;;;;5091869;28;20129;-67
2022/09/10 00:09:16;;;;;;;2.90;0.90;;;22.20;69.80;;;;;;5092176;28;20044;-67
2022/09/10 00:11:42;;;;;;;2.88;0.90;;;22.20;69.90;;;;;;5092443;28;20040;-67
2022/09/10 00:14:16;;;;;;;2.60;1.08;;;22.20;69.80;;;;;;5091534;28;20044;-67
2022/09/10 00:16:41;;;;;;;4.93;0.90;;;22.20;69.80;;;;;;5091266;28;20499;-67
2022/09/10 00:19:07;;;;;;;1.58;0.82;;;22.10;69.70;;;;;;5090879;28;20039;-67
2022/09/10 00:21:34;;;;;;;2.05;1.08;;;22.20;69.80;;;;;;5090446;28;20102;-67
2022/09/10 00:24:00;;;;;;;3.10;1.10;;;22.20;69.70;;;;;;5092362;28;20063;-67
2022/09/10 00:26:36;;;;;;;1.48;0.98;;;22.10;69.70;;;;;;5092176;28;20087;-67
2022/09/10 00:29:03;;;;;;;1.45;0.80;;;22.20;69.70;;;;;;5090376;28;20043;-67
2022/09/10 00:31:30;;;;;;;2.90;0.90;;;22.20;69.70;;;;;;5092028;28;20047;-67
2022/09/10 00:33:56;;;;;;;2.75;0.98;;;22.10;69.60;;;;;;5093837;28;20051;-67
2022/09/10 00:36:24;;;;;;;1.65;0.95;;;22.10;69.60;;;;;;5094901;28;20060;-67
2022/09/10 00:38:53;;;;;;;2.05;0.82;;;22.10;69.60;;;;;;5096343;28;20081;-67
2022/09/10 00:41:20;;;;;;;2.28;1.20;;;22.10;69.60;;;;;;5095518;28;20055;-67
2022/09/10 00:43:57;;;;;;;1.95;1.00;;;22.10;69.60;;;;;;5096346;28;20493;-67
2022/09/10 00:46:34;;;;;;;1.70;0.88;;;22.10;69.50;;;;;;5096150;28;20093;-67
2022/09/10 00:49:02;;;;;;;1.63;0.95;;;22.10;69.50;;;;;;5095404;28;20044;-67
2022/09/10 00:51:32;;;;;;;1.77;0.90;;;22.10;69.50;;;;;;5096022;28;20058;-67
2022/09/10 00:54:00;;;;;;;2.30;0.95;;;22.10;69.50;;;;;;5095004;28;20454;-67
2022/09/10 00:56:27;;;;;;;1.58;1.00;;;22.10;69.50;;;;;;5093748;28;20806;-67
2022/09/10 00:58:52;;;;;;;1.83;0.98;;;22.10;69.50;;;;;;5095072;28;20039;-67
2022/09/10 01:01:18;;;;;;;3.00;0.90;;;22.10;69.50;;;;;;5095631;28;20403;-68
2022/09/10 01:03:44;;;;;;;2.30;1.10;;;22.10;69.50;;;;;;5093813;28;20119;-68
2022/09/10 01:06:09;;;;;;;1.48;0.88;;;22.10;69.50;;;;;;5094457;28;20048;-68
2022/09/10 01:08:35;;;;;;;1.77;1.00;;;22.10;69.50;;;;;;5094800;28;20373;-68
2022/09/10 01:11:22;;;;;;;1.88;0.85;;;22.10;69.50;;;;;;5095195;28;20036;-68
2022/09/10 01:14:07;;;;;;;1.67;0.80;;;22.10;69.50;;;;;;5095721;28;20056;-66
2022/09/10 01:17:09;;;;;;;2.28;1.00;;;22.10;69.50;;;;;;5094965;28;20051;-65
2022/09/10 01:20:17;;;;;;;2.33;1.30;;;22.10;69.40;;;;;;5094827;28;20137;-66
2022/09/10 01:23:17;;;;;;;1.45;0.95;;;22.00;69.30;;;;;;5081219;28;20268;-66
2022/09/10 01:26:02;;;;;;;2.38;1.30;;;22.00;69.40;;;;;;5094595;28;20135;-66
2022/09/10 01:29:00;;;;;;;3.55;1.20;;;22.00;69.40;;;;;;5094227;28;20115;-66
2022/09/10 01:31:49;;;;;;;1.85;0.95;;;22.00;69.30;;;;;;5093168;28;20058;-66
2022/09/10 01:34:20;;;;;;;2.53;1.00;;;22.10;69.40;;;;;;5093914;28;20127;-67
2022/09/10 01:36:49;;;;;;;2.42;1.00;;;22.00;69.40;;;;;;5094065;28;20059;-67
2022/09/10 01:39:15;;;;;;;2.17;0.90;;;22.00;69.40;;;;;;5092942;28;20443;-67
2022/09/10 01:41:41;;;;;;;1.65;0.95;;;22.00;69.40;;;;;;5093692;28;20125;-67
2022/09/10 01:44:30;;;;;;;1.55;0.85;;;22.00;69.30;;;;;;5092524;28;20633;-67
2022/09/10 01:47:05;;;;;;;3.00;1.27;;;22.00;69.40;;;;;;5094715;28;20498;-67
2022/09/10 01:49:36;;;;;;;2.33;0.90;;;22.00;69.40;;;;;;5093689;28;20044;-68
2022/09/10 01:52:28;;;;;;;2.30;1.08;;;22.00;69.30;;;;;;5092852;28;20040;-67
2022/09/10 01:55:31;;;;;;;2.20;1.13;;;22.00;70.00;;;;;;5094156;28;20040;-67
2022/09/10 01:58:27;;;;;;;2.63;1.20;;;22.00;69.30;;;;;;5093297;28;20451;-67
2022/09/10 02:01:23;;;;;;;1.67;1.10;;;22.00;69.30;;;;;;5093663;28;20040;-67
2022/09/10 02:03:51;;;;;;;2.00;1.30;;;22.00;69.20;;;;;;5081172;28;20056;-67
2022/09/10 02:06:18;;;;;;;3.05;1.30;;;21.90;69.20;;;;;;5075504;28;20123;-67
2022/09/10 02:08:45;;;;;;;0.95;0.80;;;22.00;69.30;;;;;;5093693;28;20036;-66
2022/09/10 02:11:11;;;;;;;2.35;1.20;;;21.90;69.20;;;;;;5093258;28;20078;-66
2022/09/10 02:13:37;;;;;;;3.28;1.17;;;21.90;69.20;;;;;;5092356;28;20083;-67
2022/09/10 02:16:05;;;;;;;2.90;1.08;;;22.00;69.20;;;;;;5094275;28;20098;-67
2022/09/10 02:18:31;;;;;;;1.42;1.15;;;22.00;69.30;;;;;;5093105;28;20475;-67
2022/09/10 02:20:57;;;;;;;3.28;1.20;;;21.90;69.20;;;;;;5092711;28;20051;-67
2022/09/10 02:23:30;;;;;;;2.20;0.98;;;21.90;69.20;;;;;;5092798;28;20040;-67
2022/09/10 02:25:56;;;;;;;2.63;1.25;;;21.90;69.20;;;;;;5093038;28;20407;-67
2022/09/10 02:28:22;;;;;;;2.08;0.98;;;22.00;69.20;;;;;;5092146;28;20052;-67
2022/09/10 02:30:50;;;;;;;;;;;22.00;69.20;;;;;;5093228;28;20417;-67
2022/09/10 02:33:18;;;;;;;2.15;1.20;;;21.90;69.10;;;;;;5093712;28;20481;-67
2022/09/10 02:35:46;;;;;;;;;;;21.90;69.20;;;;;;5094578;28;20122;-67
2022/09/10 02:38:12;;;;;;;5.38;1.70;;;21.90;69.10;;;;;;5093697;28;19931;-67
2022/09/10 02:40:38;;;;;;;1.90;1.10;;;21.90;69.20;;;;;;5093346;28;20035;-67
2022/09/10 02:43:03;;;;;;;1.80;1.20;;;21.90;69.20;;;;;;5094092;28;20074;-67
2022/09/10 02:45:33;;;;;;;3.65;1.02;;;21.90;69.20;;;;;;5092575;28;20052;-67
2022/09/10 02:47:59;;;;;;;1.95;1.10;;;21.90;69.20;;;;;;5093005;28;20054;-67
2022/09/10 02:50:24;;;;;;;2.95;1.20;;;21.90;69.20;;;;;;5093805;28;20407;-67
2022/09/10 02:52:50;;;;;;;2.10;1.10;;;21.90;69.20;;;;;;5093989;28;20036;-67
2022/09/10 02:55:16;;;;;;;2.90;1.35;;;21.90;69.20;;;;;;5092632;28;20044;-67
2022/09/10 02:57:42;;;;;;;3.13;1.20;;;21.90;69.20;;;;;;5092885;28;20092;-67
2022/09/10 03:00:08;;;;;;;3.00;1.45;;;21.90;69.10;;;;;;5093423;28;20052;-67
2022/09/10 03:02:35;;;;;;;2.15;1.30;;;21.90;69.20;;;;;;5092698;28;20040;-67
2022/09/10 03:05:03;;;;;;;2.03;1.23;;;21.90;69.10;;;;;;5093836;28;20047;-67
2022/09/10 03:07:29;;;;;;;1.95;1.00;;;21.90;69.20;;;;;;5093059;28;20395;-66
2022/09/10 03:09:55;;;;;;;1.52;0.95;;;21.90;69.10;;;;;;5092753;28;20407;-67
2022/09/10 03:12:20;;;;;;;1.67;1.05;;;21.90;69.10;;;;;;5093120;28;20047;-67
2022/09/10 03:14:46;;;;;;;2.72;1.50;;;21.90;69.10;;;;;;5093269;28;20048;-68
2022/09/10 03:17:11;;;;;;;2.47;1.02;;;21.90;69.10;;;;;;5092203;28;20109;-67
2022/09/10 03:19:38;;;;;;;2.95;1.10;;;21.90;69.10;;;;;;5093386;28;20113;-67
2022/09/10 03:22:07;;;;;;;1.90;1.02;;;21.80;69.70;;;;;;5093189;28;20046;-67
2022/09/10 03:24:32;;;;;;;1.27;1.00;;;21.90;69.10;;;;;;5092691;28;20055;-67
2022/09/10 03:26:58;;;;;;;2.08;1.20;;;21.90;69.10;;;;;;5093395;28;20044;-67
2022/09/10 03:29:23;;;;;;;2.97;1.30;;;21.80;69.00;;;;;;5093011;28;20044;-67
2022/09/10 03:31:50;;;;;;;1.75;1.10;;;21.90;69.10;;;;;;5092162;28;20051;-67
2022/09/10 03:34:16;;;;;;;2.10;1.27;;;21.80;69.10;;;;;;5092939;28;20136;-67
2022/09/10 03:36:48;;;;;;;2.40;1.15;;;21.90;69.10;;;;;;5092313;28;20080;-67
2022/09/10 03:39:15;;;;;;;1.35;0.98;;;21.80;69.00;;;;;;5092860;28;20043;-67
2022/09/10 03:41:44;;;;;;;2.75;1.08;;;21.90;69.10;;;;;;5093132;28;20055;-67
2022/09/10 03:44:10;;;;;;;3.33;1.10;;;21.80;69.00;;;;;;5091710;28;20048;-67
2022/09/10 03:46:36;;;;;;;2.17;0.90;;;21.80;69.10;;;;;;5091540;28;20400;-67
2022/09/10 03:51:54;;;;;;;2.28;1.13;;;21.80;69.00;;;;;;5088011;28;20131;-67
2022/09/10 03:54:20;;;;;;;2.40;1.20;;;21.80;69.00;;;;;;5092565;28;20173;-67
2022/09/10 03:56:45;;;;;;;1.90;1.20;;;21.80;69.00;;;;;;5091297;28;20044;-67
2022/09/10 03:59:14;;;;;;;2.08;1.35;;;21.80;69.00;;;;;;5091847;28;20490;-67
2022/09/10 04:01:39;;;;;;;;;;;21.80;69.00;;;;;;5090820;28;20036;-67
2022/09/10 04:04:07;;;;;;;2.88;1.05;;;21.80;68.90;;;;;;5092406;28;20007;-67
2022/09/10 04:06:33;;;;;;;1.50;0.93;;;21.80;69.10;;;;;;5091449;28;20132;-67
2022/09/10 04:09:00;;;;;;;2.58;1.08;;;21.80;69.00;;;;;;5092341;28;20047;-67
2022/09/10 04:11:26;;;;;;;1.60;1.10;;;21.80;69.00;;;;;;5092432;28;20155;-67
2022/09/10 04:13:52;;;;;;;2.72;1.08;;;21.80;69.00;;;;;;5091427;28;20134;-67
2022/09/10 04:16:24;;;;;;;2.55;1.35;;;21.80;69.00;;;;;;5092046;28;20044;-67
2022/09/10 04:18:53;;;;;;;1.75;0.90;;;21.80;69.00;;;;;;5091828;28;20048;-67
2022/09/10 04:21:22;;;;;;;2.45;1.17;;;21.80;69.00;;;;;;5091071;28;20040;-67
2022/09/10 04:23:47;;;;;;;2.10;1.17;;;21.80;69.00;;;;;;5125399;28;20047;-67
2022/09/10 04:26:14;;;;;;;2.47;1.10;;;21.80;69.00;;;;;;5091027;28;20055;-67
2022/09/10 04:28:40;;;;;;;1.65;1.00;;;21.80;69.00;;;;;;5092549;28;20091;-67
2022/09/10 04:31:05;;;;;;;1.70;1.08;;;21.80;69.00;;;;;;5092271;28;20083;-67
2022/09/10 04:33:32;;;;;;;2.13;1.10;;;21.80;69.00;;;;;;5124217;28;20040;-67
2022/09/10 04:35:59;;;;;;;2.63;1.42;;;21.80;69.00;;;;;;5092526;28;20059;-67
2022/09/10 04:38:25;;;;;;;2.25;1.25;;;21.80;69.00;;;;;;5124656;28;20139;-67
2022/09/10 04:40:51;;;;;;;2.17;1.25;;;21.80;69.00;;;;;;5091864;28;20198;-67
2022/09/10 04:43:17;;;;;;;2.53;1.40;;;21.80;69.00;;;;;;5092121;28;20123;-67
2022/09/10 04:45:43;;;;;;;2.25;1.25;;;21.80;69.00;;;;;;5092285;28;20064;-67
2022/09/10 04:48:08;;;;;;;3.08;1.40;;;21.80;69.00;;;;;;5091237;28;20535;-67
2022/09/10 04:50:34;;;;;;;2.10;1.23;;;21.80;69.00;;;;;;5092230;28;20487;-67
2022/09/10 04:53:00;;;;;;;2.90;1.58;;;21.80;69.00;;;;;;5092240;28;20407;-67
2022/09/10 04:55:26;;;;;;;3.53;1.40;;;21.70;68.90;;;;;;5091261;28;20051;-67
2022/09/10 04:57:53;;;;;;;2.10;1.20;;;21.80;69.00;;;;;;5092180;28;20044;-67
2022/09/10 05:00:18;;;;;;;2.08;1.10;;;21.80;68.90;;;;;;5090788;28;20040;-67
2022/09/10 05:02:45;;;;;;;3.67;1.27;;;21.80;69.00;;;;;;5091533;28;20044;-67
2022/09/10 05:05:11;;;;;;;2.47;1.25;;;21.70;69.00;;;;;;5124531;28;20399;-67
2022/09/10 05:07:36;;;;;;;3.00;1.45;;;21.70;69.00;;;;;;5091709;28;20476;-68
2022/09/10 05:10:02;;;;;;;2.63;1.27;;;21.70;68.90;;;;;;5091173;28;20069;-67
2022/09/10 05:12:27;;;;;;;2.15;1.30;;;21.80;69.00;;;;;;5124536;28;20046;-67
2022/09/10 05:14:53;;;;;;;3.08;1.48;;;21.70;68.90;;;;;;5091859;28;20047;-67
2022/09/10 05:17:19;;;;;;;2.85;1.75;;;21.70;69.00;;;;;;5090774;28;20043;-67
2022/09/10 05:19:44;;;;;;;2.53;1.27;;;21.80;69.00;;;;;;5093036;28;20054;-67
2022/09/10 05:22:10;;;;;;;2.40;1.20;;;21.80;69.00;;;;;;5094349;28;20134;-67
2022/09/10 05:24:36;;;;;;;3.33;1.40;;;21.70;68.90;;;;;;5095584;28;20128;-67
2022/09/10 05:27:01;;;;;;;2.38;1.48;;;21.70;69.00;;;;;;5095480;28;20106;-67
2022/09/10 05:29:27;;;;;;;2.30;1.42;;;21.70;68.90;;;;;;5094410;28;20043;-67
2022/09/10 05:31:52;;;;;;;1.88;1.30;;;21.70;68.90;;;;;;5095472;28;20051;-67
2022/09/10 05:34:19;;;;;;;3.50;1.60;;;21.70;68.90;;;;;;5093799;28;20051;-67
2022/09/10 05:36:44;;;;;;;3.00;1.48;;;21.70;69.00;;;;;;5094147;28;20056;-67
2022/09/10 05:39:10;;;;;;;2.80;1.33;;;21.70;68.90;;;;;;5094953;28;20484;-67
2022/09/10 05:41:38;;;;;;;2.83;1.40;;;21.70;68.90;;;;;;5095444;28;20247;-67
2022/09/10 05:44:04;;;;;;;;;;;21.70;69.00;;;;;;5095021;28;20080;-67
2022/09/10 05:46:30;;;;;;;2.75;1.60;;;21.70;68.90;;;;;;5094515;28;19916;-67
2022/09/10 05:48:58;;;;;;;2.40;1.38;;;21.70;69.60;;;;;;5095177;28;20071;-67
2022/09/10 05:51:29;;;;;;;3.78;1.50;;;21.70;69.00;;;;;;5094251;28;20468;-67
2022/09/10 05:53:55;;;;;;;2.65;1.33;;;21.70;69.00;;;;;;5094906;28;20404;-67
2022/09/10 05:56:20;;;;;;;3.75;1.77;;;21.70;69.00;;;;;;5094616;28;20472;-67
2022/09/10 05:58:46;;;;;;;3.70;1.73;;;21.70;69.00;;;;;;5093968;28;20048;-68
2022/09/10 06:01:12;;;;;;;2.38;1.60;;;21.70;69.00;;;;;;5094396;28;20065;-67
2022/09/10 06:03:39;;;;;;;2.70;1.55;;;21.70;69.10;;;;;;5094950;28;20048;-68
2022/09/10 06:06:05;;;;;;;3.08;1.40;;;21.70;69.10;;;;;;5094023;28;20048;-67
2022/09/10 06:08:30;;;;;;;6.20;2.20;;;21.70;69.10;;;;;;5094338;28;20109;-67
2022/09/10 06:11:04;;;;;;;3.67;2.22;;;21.70;69.10;;;;;;5094663;28;20055;-66
2022/09/10 06:13:31;;;;;;;5.38;2.20;;;21.70;69.30;;;;;;5093667;28;20051;-66
2022/09/10 06:15:56;;;;;;;3.47;1.95;;;21.70;69.30;;;;;;5094463;28;20036;-66
2022/09/10 06:18:22;;;;;;;3.53;1.90;;;21.70;69.20;;;;;;5093323;28;20139;-66
2022/09/10 06:20:47;;;;;;;3.25;1.73;;;21.70;69.10;;;;;;5092792;28;20078;-67
2022/09/10 06:23:16;;;;;;;3.45;1.80;;;21.70;69.10;;;;;;5094344;28;20044;-67
2022/09/10 06:25:47;;;;;;;3.97;2.00;;;21.70;69.20;;;;;;5126772;27;20044;-67
2022/09/10 06:28:13;;;;;;;5.55;1.88;;;21.70;69.20;;;;;;5094082;28;20051;-68
2022/09/10 06:30:38;;;;;;;6.28;2.00;;;21.70;69.10;;;;;;5093191;28;20507;-67
2022/09/10 06:33:22;;;;;;;3.35;2.15;;;21.70;69.10;;;;;;5092788;28;20503;-67
2022/09/10 06:35:54;;;;;;;5.72;2.58;;;21.70;69.10;;;;;;5094405;28;20212;-67
2022/09/10 06:38:20;;;;;;;4.45;2.15;;;21.70;69.20;;;;;;5093620;28;20487;-66
2022/09/10 06:40:53;;;;;;;5.95;2.70;;;21.70;69.30;;;;;;5093563;28;20103;-65
2022/09/10 06:43:20;;;;;;;8.07;2.38;;;21.70;69.60;;;;;;5093696;28;20055;-66
2022/09/10 06:45:45;;;;;;;5.00;1.98;;;21.70;69.60;;;;;;5093793;28;20032;-65
2022/09/10 06:48:11;;;;;;;6.53;2.10;;;21.70;69.70;;;;;;5092943;28;20514;-65
2022/09/10 06:50:36;;;;;;;4.25;2.20;;;21.70;69.80;;;;;;5094150;28;20498;-65
2022/09/10 06:53:02;;;;;;;2.95;1.95;;;21.70;69.90;;;;;;5093907;28;20047;-66
2022/09/10 06:55:27;;;;;;;6.68;2.20;;;21.80;70.00;;;;;;5092733;28;20048;-66
2022/09/10 06:57:53;;;;;;;4.47;2.13;;;21.70;69.90;;;;;;5093626;28;20051;-66
2022/09/10 07:00:24;;;;;;;3.22;2.00;;;21.80;70.10;;;;;;5093642;28;20051;-65
2022/09/10 07:02:51;;;;;;;3.28;1.83;;;21.80;70.10;;;;;;5092981;28;20039;-65
2022/09/10 07:05:16;;;;;;;4.22;2.08;;;21.80;70.10;;;;;;5093453;28;20052;-65
2022/09/10 07:07:42;;;;;;;4.75;2.35;;;21.80;70.10;;;;;;5093116;28;20059;-66
2022/09/10 07:10:11;;;;;;;4.78;2.22;;;21.80;70.10;;;;;;5093244;28;20040;-65
2022/09/10 07:12:36;;;;;;;4.63;2.35;;;21.80;70.10;;;;;;5093642;28;20071;-66
2022/09/10 07:15:02;;;;;;;5.63;2.80;;;21.80;70.20;;;;;;5092806;28;20503;-65
2022/09/10 07:17:34;;;;;;;5.15;2.70;;;21.80;70.20;;;;;;5093261;28;20040;-65
2022/09/10 07:20:03;;;;;;;5.88;2.53;;;21.80;70.20;;;;;;5093615;28;20112;-66
2022/09/10 07:22:31;;;;;;;4.13;2.38;;;21.80;70.30;;;;;;5092280;28;20055;-68
2022/09/10 07:24:57;;;;;;;5.38;2.80;;;21.80;70.30;;;;;;5093298;28;20040;-66
2022/09/10 07:27:22;;;;;;;5.60;2.53;;;21.80;70.40;;;;;;5093121;28;20051;-67
2022/09/10 07:29:53;;;;;;;7.47;2.75;;;21.80;70.40;;;;;;5092509;28;20036;-68
2022/09/10 07:32:19;;;;;;;5.38;2.45;;;21.80;70.40;;;;;;5092730;28;20041;-68
2022/09/10 07:34:46;;;;;;;5.93;2.75;;;21.80;70.40;;;;;;5093111;28;20097;-68
2022/09/10 07:37:14;;;;;;;5.28;2.75;;;21.80;70.40;;;;;;5091791;28;20058;-69
2022/09/10 07:39:43;;;;;;;4.30;2.47;;;21.80;70.40;;;;;;5093123;28;20048;-68
2022/09/10 07:42:10;;;;;;;9.57;2.63;;;21.80;70.40;;;;;;5092583;28;20407;-66
2022/09/10 07:44:35;;;;;;;5.30;2.70;;;21.80;70.40;;;;;;5092286;28;20054;-67
2022/09/10 07:47:04;;;;;;;6.10;2.63;;;21.80;70.40;;;;;;5092939;28;20048;-68
2022/09/10 07:49:30;;;;;;;5.00;2.58;;;21.90;70.50;;;;;;5091821;28;20037;-68
2022/09/10 07:51:56;;;;;;;5.70;2.70;;;21.80;70.50;;;;;;5090772;28;20048;-68
2022/09/10 07:54:23;;;;;;;5.00;2.30;;;21.80;70.50;;;;;;5092578;28;20036;-68
2022/09/10 07:56:49;;;;;;;6.25;2.85;;;21.90;70.40;;;;;;5092819;28;20055;-67
2022/09/10 07:59:21;;;;;;;6.53;2.72;;;21.80;70.40;;;;;;5091774;28;20044;-67
2022/09/10 08:01:55;;;;;;;6.53;2.70;;;21.90;70.50;;;;;;5092614;28;20499;-68
2022/09/10 08:04:21;;;;;;;8.15;2.58;;;21.90;70.60;;;;;;5090377;28;20123;-67
2022/09/10 08:06:47;;;;;;;5.07;2.47;;;21.90;70.60;;;;;;5092704;28;20040;-66
2022/09/10 08:09:13;;;;;;;5.45;2.85;;;21.90;70.70;;;;;;5091236;28;20055;-66
2022/09/10 08:11:39;;;;;;;6.47;2.60;;;21.90;70.70;;;;;;5091901;28;20123;-67
2022/09/10 08:14:05;;;;;;;5.78;2.95;;;21.90;70.70;;;;;;5092200;28;20120;-66
2022/09/10 08:16:31;;;;;;;5.90;2.90;;;21.90;70.70;;;;;;5091068;28;20502;-66
2022/09/10 08:18:59;;;;;;;7.03;3.08;;;21.90;70.70;;;;;;5090185;28;20105;-66
2022/09/10 08:21:24;;;;;;;4.80;2.47;;;21.90;70.70;;;;;;5091115;28;20059;-66
2022/09/10 08:23:54;;;;;;;5.50;2.70;;;21.90;70.70;;;;;;5091497;28;20659;-67
2022/09/10 08:26:24;;;;;;;12.02;3.03;;;21.90;70.70;;;;;;5087370;28;20165;-68
2022/09/10 08:28:50;;;;;;;6.45;2.97;;;21.90;70.70;;;;;;5092105;28;20036;-68
2022/09/10 08:31:16;;;;;;;6.70;3.05;;;21.90;70.70;;;;;;5093240;28;20105;-68
2022/09/10 08:33:50;;;;;;;5.75;3.20;;;21.90;70.70;;;;;;5092066;28;20048;-69
2022/09/10 08:36:16;;;;;;;5.35;3.13;;;22.00;70.70;;;;;;5092404;28;20169;-68
2022/09/10 08:38:43;;;;;;;5.15;3.00;;;22.00;70.70;;;;;;5091846;28;20056;-68
2022/09/10 08:41:31;;;;;;;6.07;2.83;;;22.00;70.70;;;;;;5090910;28;20051;-67
2022/09/10 08:44:08;;;;;;;6.10;2.90;;;22.00;70.70;;;;;;5090828;28;20135;-68
2022/09/10 08:46:48;;;;;;;6.53;3.17;;;22.00;70.60;;;;;;5090831;28;20511;-68
2022/09/10 08:49:21;;;;;;;5.18;2.92;;;22.10;70.70;;;;;;5090386;28;20051;-68
2022/09/10 08:51:58;;;;;;;6.13;3.20;;;22.10;70.70;;;;;;5090652;28;20044;-69
2022/09/10 08:54:31;;;;;;;6.40;3.00;;;22.10;70.70;;;;;;5075177;28;20083;-68
2022/09/10 08:56:58;;;;;;;5.45;3.15;;;22.10;70.70;;;;;;5095661;28;20059;-68
2022/09/10 08:59:29;;;;;;;6.18;3.20;;;22.10;70.70;;;;;;5095494;28;20059;-69
2022/09/10 09:02:16;;;;;;;5.10;3.10;;;22.10;70.70;;;;;;5076534;28;20532;-68
2022/09/10 09:04:51;;;;;;;6.13;3.20;;;22.10;70.70;;;;;;5094657;28;20072;-69
2022/09/10 09:07:18;;;;;;;5.80;3.22;;;22.10;70.70;;;;;;5093383;28;20101;-69
2022/09/10 09:09:44;;;;;;;5.50;3.35;;;22.10;70.80;;;;;;5095582;28;20036;-68
2022/09/10 09:12:31;;;;;;;6.07;2.97;;;22.10;70.80;;;;;;5075793;28;20120;-69
2022/09/10 09:15:50;;;;;;;7.20;3.30;;;22.10;70.80;;;;;;5092313;28;20430;-70
2022/09/10 09:18:30;;;;;;;5.00;2.88;;;22.20;70.70;;;;;;5016007;28;20087;-69
2022/09/10 09:20:59;;;;;;;8.38;3.03;;;22.20;70.60;;;;;;5016406;28;20622;-69
2022/09/10 09:23:25;;;;;;;4.95;3.35;;;22.20;70.50;;;;;;5067523;28;20066;-69
2022/09/10 09:26:02;;;;;;;11.88;3.83;;;22.10;70.30;;;;;;5095035;28;20040;-66
2022/09/10 09:28:49;;;;;;;7.30;3.25;;;22.20;70.40;;;;;;5056562;28;20480;-66
2022/09/10 09:31:24;;;;;;;6.03;3.35;;;22.20;70.50;;;;;;5077903;28;20048;-67
2022/09/10 09:33:50;;;;;;;5.72;3.45;;;22.20;70.50;;;;;;5076743;28;20044;-67
2022/09/10 09:36:17;;;;;;;8.73;3.40;;;22.20;70.50;;;;;;5093520;28;20063;-67
2022/09/10 09:38:47;;;;;;;6.30;3.28;;;22.20;70.50;;;;;;5092735;28;20059;-68
2022/09/10 09:41:27;;;;;;;7.65;3.40;;;22.20;70.60;;;;;;5094300;28;20048;-67
2022/09/10 09:43:59;;;;;;;8.30;3.30;;;22.30;70.70;;;;;;5092355;28;20051;-67
2022/09/10 09:46:27;;;;;;;6.68;3.40;;;22.30;70.70;;;;;;5076501;28;20063;-66
2022/09/10 09:48:57;;;;;;;;;;;22.30;70.70;;;;;;5095140;28;20040;-67
2022/09/10 09:51:24;;;;;;;5.53;3.00;;;22.30;70.70;;;;;;5093806;28;20007;-66
2022/09/10 09:53:53;;;;;;;6.88;3.17;;;22.30;70.80;;;;;;5094930;28;20047;-64
2022/09/10 09:56:22;;;;;;;8.82;3.60;;;22.30;70.80;;;;;;5110860;27;20466;-66
2022/09/10 09:58:48;;;;;;;7.20;3.40;;;22.40;71.00;;;;;;5093866;28;20040;-65
2022/09/10 10:01:24;;;;;;;6.45;3.10;;;22.40;71.10;;;;;;5092403;28;20480;-66
2022/09/10 10:04:00;;;;;;;7.07;2.92;;;22.40;71.10;;;;;;5092696;28;20051;-66
2022/09/10 10:06:30;;;;;;;5.22;3.28;;;22.40;71.20;;;;;;5094213;28;20051;-66
2022/09/10 10:09:06;;;;;;;8.25;3.22;;;22.40;71.30;;;;;;5094425;28;20071;-66
2022/09/10 10:11:44;;;;;;;7.32;3.30;;;22.40;71.40;;;;;;5092347;28;20119;-66
2022/09/10 10:14:11;;;;;;;5.88;2.95;;;22.40;71.50;;;;;;5092588;28;20502;-66
2022/09/10 10:16:37;;;;;;;6.72;3.33;;;22.40;71.40;;;;;;5094201;28;20044;-66
2022/09/10 10:19:06;;;;;;;9.90;3.67;;;22.40;71.40;;;;;;5092207;28;20058;-66
2022/09/10 10:21:33;;;;;;;5.22;3.20;;;22.40;71.50;;;;;;5092648;28;20160;-66
2022/09/10 10:23:59;;;;;;;6.50;3.60;;;22.40;71.50;;;;;;5092757;28;20036;-67
2022/09/10 10:26:29;;;;;;;6.63;2.90;;;22.40;71.50;;;;;;5091654;28;20449;-66
2022/09/10 10:29:18;;;;;;;10.25;3.20;;;22.40;71.50;;;;;;5075990;28;20050;-67
2022/09/10 10:31:46;;;;;;;5.50;3.03;;;22.40;71.50;;;;;;5093234;28;20468;-67
2022/09/10 10:34:40;;;;;;;5.93;3.53;;;22.40;71.50;;;;;;5075384;28;20068;-67
2022/09/10 10:37:52;;;;;;;6.22;3.50;;;22.50;71.60;;;;;;5092222;28;20135;-67
2022/09/10 10:40:36;;;;;;;7.00;3.25;;;22.40;71.50;;;;;;5069725;28;20048;-65
2022/09/10 10:43:27;;;;;;;7.28;3.22;;;22.50;71.50;;;;;;5091596;28;20563;-65
2022/09/10 10:46:04;;;;;;;6.88;3.40;;;22.40;71.40;;;;;;5064399;28;20479;-66
2022/09/10 10:48:50;;;;;;;5.90;3.35;;;22.40;71.40;;;;;;5092413;28;20445;-65
2022/09/10 10:51:23;;;;;;;4.93;2.63;;;22.50;71.30;;;;;;5091807;28;20033;-66
2022/09/10 10:54:30;;;;;;;10.45;3.67;;;22.50;71.30;;;;;;5092408;28;20044;-66
2022/09/10 10:57:42;;;;;;;8.45;3.45;;;22.50;71.30;;;;;;5092313;28;20055;-66
2022/09/10 11:00:20;;;;;;;5.88;3.13;;;22.50;71.30;;;;;;5074270;28;20068;-66
2022/09/10 11:03:01;;;;;;;6.70;3.13;;;22.50;71.20;;;;;;5092054;28;20044;-66
2022/09/10 11:05:44;;;;;;;5.82;3.15;;;22.50;71.10;;;;;;5074760;28;20857;-66
2022/09/10 11:08:20;;;;;;;7.03;3.20;;;22.50;71.10;;;;;;5092323;28;20102;-67
2022/09/10 11:10:59;;;;;;;13.73;3.70;;;22.50;71.10;;;;;;5076016;28;20048;-69
2022/09/10 11:13:30;;;;;;;14.18;3.75;;;22.50;71.10;;;;;;5091422;28;20132;-65
2022/09/10 11:16:13;;;;;;;13.68;4.32;;;22.50;71.10;;;;;;5091376;28;20048;-65
2022/09/10 11:18:50;;;;;;;10.52;3.40;;;22.60;71.00;;;;;;5092462;28;20392;-66
2022/09/10 11:21:40;;;;;;;12.73;4.18;;;22.50;70.90;;;;;;5058619;28;20463;-65
2022/09/10 11:24:12;;;;;;;10.07;4.20;;;22.60;70.90;;;;;;5074975;28;20445;-66
2022/09/10 11:26:53;;;;;;;12.30;3.95;;;22.50;70.80;;;;;;5091764;28;20044;-65
2022/09/10 11:29:33;;;;;;;15.90;4.43;;;22.60;70.70;;;;;;5075526;28;20081;-63
2022/09/10 11:32:11;;;;;;;17.50;4.63;;;22.60;70.70;;;;;;5091284;28;20381;-64
2022/09/10 11:34:48;;;;;;;16.58;4.97;;;22.60;70.60;;;;;;5091374;28;20089;-63
2022/09/10 11:37:37;;;;;;;10.80;4.15;;;22.60;70.30;;;;;;5091447;28;20048;-64
2022/09/10 11:40:04;;;;;;;10.55;3.97;;;22.60;69.80;;;;;;5091324;28;20480;-64
2022/09/10 11:42:42;;;;;;;10.80;4.43;;;22.60;70.30;;;;;;5088066;28;20420;-64
2022/09/10 11:45:17;;;;;;;;;;;22.70;69.60;;;;;;5090868;28;20048;-63
2022/09/10 11:47:46;;;;;;;8.50;3.65;;;22.60;69.70;;;;;;5074233;28;19967;-64
2022/09/10 11:50:50;;;;;;;13.30;3.83;;;22.70;69.80;;;;;;5089916;28;20047;-67
2022/09/10 11:53:16;;;;;;;11.70;4.10;;;22.70;69.80;;;;;;5075231;28;20059;-65
2022/09/10 11:55:50;;;;;;;15.75;3.85;;;22.70;69.90;;;;;;5091958;28;20036;-65
2022/09/10 11:58:19;;;;;;;10.00;4.28;;;22.70;69.90;;;;;;5088860;28;20411;-65
2022/09/10 12:00:56;;;;;;;9.27;3.90;;;22.70;69.80;;;;;;5092128;28;20074;-64
2022/09/10 12:03:34;;;;;;;11.38;3.95;;;22.70;69.90;;;;;;5072713;28;20040;-66
2022/09/10 12:06:12;;;;;;;8.57;3.75;;;22.70;70.00;;;;;;5091018;28;20564;-66
2022/09/10 12:09:03;;;;;;;7.53;2.90;;;22.80;70.00;;;;;;5091111;28;20048;-66
2022/09/10 12:11:31;;;;;;;10.25;3.60;;;22.80;70.10;;;;;;5089940;28;20059;-66
2022/09/10 12:13:57;;;;;;;6.80;3.42;;;22.70;70.00;;;;;;5091102;28;20051;-66
2022/09/10 12:16:47;;;;;;;6.38;3.50;;;22.70;70.00;;;;;;5091378;28;20040;-65
2022/09/10 12:19:28;;;;;;;11.35;3.75;;;22.80;69.90;;;;;;5089797;28;20048;-65
2022/09/10 12:22:02;;;;;;;12.40;3.55;;;22.80;69.90;;;;;;5091019;28;20094;-66
2022/09/10 12:24:32;;;;;;;14.93;3.22;;;22.80;69.90;;;;;;5089885;28;20414;-65
2022/09/10 12:27:05;;;;;;;11.45;2.78;;;22.90;69.80;;;;;;5091084;28;20068;-71
2022/09/10 12:29:39;;;;;;;10.93;3.00;;;23.00;69.60;;;;;;5093047;28;20390;-69
2022/09/10 12:32:08;;;;;;;10.95;3.58;;;23.10;69.50;;;;;;5094135;28;20052;-70
2022/09/10 12:34:35;;;;;;;10.25;3.65;;;23.10;69.30;;;;;;5096059;28;20093;-65
2022/09/10 12:37:00;;;;;;;12.10;3.30;;;23.20;69.20;;;;;;5095033;28;20098;-63
2022/09/10 12:39:26;;;;;;;9.57;3.10;;;23.20;69.10;;;;;;5095304;28;20293;-63
2022/09/10 12:41:58;;;;;;;10.95;3.08;;;23.10;69.00;;;;;;5096205;28;20044;-63
2022/09/10 12:44:27;;;;;;;7.97;3.00;;;23.10;69.10;;;;;;5094365;28;20471;-63
2022/09/10 12:47:17;;;;;;;7.82;3.15;;;23.10;69.10;;;;;;5093970;28;20044;-63
2022/09/10 12:49:53;;;;;;;6.53;2.83;;;23.10;69.20;;;;;;5095831;28;20468;-63
2022/09/10 12:52:27;;;;;;;9.45;3.25;;;23.10;69.30;;;;;;5093637;28;20044;-64
2022/09/10 12:54:59;;;;;;;8.95;2.85;;;23.10;69.30;;;;;;5094593;28;20051;-63
2022/09/10 12:57:35;;;;;;;7.32;3.10;;;23.00;69.80;;;;;;5094684;28;20152;-63
2022/09/10 13:00:18;;;;;;;8.82;3.20;;;23.00;69.20;;;;;;5093817;28;20040;-64
2022/09/10 13:02:51;;;;;;;6.53;2.95;;;23.00;69.20;;;;;;5094889;28;20044;-63
2022/09/10 13:05:35;;;;;;;7.78;2.92;;;23.00;69.30;;;;;;5094320;28;20044;-63
2022/09/10 13:08:14;;;;;;;8.88;3.17;;;23.00;69.20;;;;;;5095276;28;20040;-64
2022/09/10 13:10:41;;;;;;;6.20;3.03;;;23.00;69.30;;;;;;5093413;28;20067;-63
2022/09/10 13:13:34;;;;;;;7.13;2.88;;;23.00;69.30;;;;;;5074958;28;20051;-69